Houthalen, Belgium
Current Conditions -  °F | °C
As of 9:25 PM on Tuesday 25 Nov 2014 (Local Time) from EBBL Reporting Station
Scattered Clouds Scattered Clouds  
Wind Chill: 33°   Ceiling: Unl
Heat Index: 39°   Visibility: 6mi
Dew Point: 34°   Wind: 9mph
Humidity: 81%   Direction: 80°E
Pressure: 30.12"   Gusts: NA
Location:  51.03°N, 5.37°E
Report Text: EBBL 252025Z 08008KT 9999 SCT120 04/01 Q1020 BLU FCST CANCEL
Loading
Personal Weather Stations






























Interactive Weather Map New forecast layout! Learn more

10-Day Weather Forecast

Advertisements
Track Severe Weather on mobile